Latest Weather Observations for Cape Bruny AWS

IDT60901

Issued at 6:25 am EDT Saturday 29 November 2014 (issued every 10 minutes, with the page automatically refreshed every 10 minutes)

About weather observations | Map of Hobart area stations | Latest observations for Hobart area | Other Formats
Station Details ID: 094198 Name: CAPE BRUNY (CAPE BRUNY) Lat: -43.49 Lon: 147.14 Height: 59.7 m
Data from the previous 72 hours. | See also: Recent months at Cape Bruny AWS
Date/Time
EDT
Tmp

°C
App
Tmp
°C
Dew
Point
°C
Rel
Hum
%
Delta-T

°C
Wind Press
QNH
hPa
Press
MSL
hPa
Rain
since
9 am
mm
Dir
 
Spd
km/h
Gust
km/h
Spd
kts
Gust
kts
29/06:00am 9.9 6.8 5.5 74 2.0 SSW 11 19 6 10 1020.3 1020.3 0.0
29/05:30am 9.8 6.0 5.6 75 1.9 SW 15 20 8 11 1020.3 1020.3 0.0
29/05:00am 9.9 6.9 5.9 76 1.8 SW 11 20 6 11 1020.2 1020.2 0.0
29/04:30am 9.9 6.1 5.9 76 1.8 SW 15 22 8 12 1020.1 1020.1 0.0
29/04:00am 10.0 6.6 5.8 75 1.9 SW 13 20 7 11 1020.0 1020.0 0.0
29/03:30am 10.1 7.5 5.9 75 1.9 SSW 9 17 5 9 1020.3 1020.3 0.0
29/03:00am 10.1 6.7 5.7 74 2.0 SW 13 22 7 12 1020.5 1020.5 0.0
29/02:30am 10.3 7.0 6.5 77 1.8 SW 13 19 7 10 1020.4 1020.4 0.0
29/02:00am 10.0 7.2 7.1 82 1.4 SW 11 20 6 11 1020.6 1020.6 0.0
29/01:30am 9.9 6.6 8.2 89 0.8 SW 15 20 8 11 1020.6 1020.6 0.0
29/01:00am 10.1 7.0 8.7 91 0.7 S 15 26 8 14 1020.7 1020.7 0.0
29/12:30am 10.6 6.6 9.2 91 0.7 S 20 33 11 18 1020.7 1020.7 0.0
29/12:00am 10.8 6.8 9.1 89 0.8 SW 20 30 11 16 1020.8 1020.8 0.0
 
Date/Time
EDT
Tmp

°C
App
Tmp
°C
Dew
Point
°C
Rel
Hum
%
Delta-T

°C
Wind Press
QNH
hPa
Press
MSL
hPa
Rain
since
9 am
mm
Dir
 
Spd
km/h
Gust
km/h
Spd
kts
Gust
kts
28/11:30pm 11.6 5.8 9.5 87 1.1 SW 30 39 16 21 1020.8 1020.8 0.0
28/11:00pm 12.1 8.2 8.6 79 1.7 WSW 19 24 10 13 1020.9 1020.9 0.0
28/10:30pm 11.9 8.4 8.6 80 1.6 WSW 17 22 9 12 1020.9 1020.9 0.0
28/10:00pm 11.8 8.2 8.3 79 1.7 WSW 17 24 9 13 1020.9 1020.9 0.0
28/09:30pm 12.0 7.5 8.5 79 1.7 SW 22 30 12 16 1020.9 1020.9 0.0
28/09:00pm 12.3 7.8 8.6 78 1.8 WSW 22 33 12 18 1020.9 1020.9 0.0
28/08:30pm 12.6 7.7 8.5 76 2.0 WSW 24 33 13 18 1020.9 1020.9 0.0
28/08:00pm 13.4 8.8 8.3 71 2.5 WSW 22 32 12 17 1020.8 1020.8 0.0
28/07:30pm 13.8 8.4 7.8 67 3.0 WSW 26 32 14 17 1020.7 1020.7 0.0
28/07:00pm 14.4 9.1 8.4 67 3.0 WSW 26 37 14 20 1020.7 1020.7 0.0
28/06:30pm 13.5 7.7 7.9 69 2.8 WSW 28 35 15 19 1020.6 1020.6 0.0
28/06:00pm 13.2 7.3 7.6 69 2.7 SW 28 37 15 20 1020.6 1020.6 0.0
28/05:30pm 13.1 7.3 7.8 70 2.6 SW 28 39 15 21 1020.8 1020.8 0.0
28/05:00pm 14.0 9.1 8.6 70 2.7 SW 24 35 13 19 1020.8 1020.8 0.0
28/04:30pm 14.1 9.2 8.3 68 2.9 SW 24 37 13 20 1020.8 1020.8 0.0
28/04:00pm 13.9 8.5 7.9 67 3.0 SW 26 37 14 20 1020.8 1020.8 0.0
28/03:30pm 13.6 7.3 7.6 67 3.0 SW 30 43 16 23 1021.1 1021.1 0.0
28/03:00pm 15.2 10.2 8.2 63 3.5 SW 24 33 13 18 1021.1 1021.1 0.0
28/02:30pm 15.8 12.1 7.8 59 4.0 SW 17 24 9 13 1021.3 1021.3 0.0
28/02:00pm 15.3 11.1 8.3 63 3.5 WSW 20 28 11 15 1021.5 1021.5 0.0
28/01:30pm 15.2 10.8 7.5 60 3.8 SW 20 32 11 17 1021.7 1021.7 0.0
28/01:00pm 16.3 11.9 7.5 56 4.4 SW 20 28 11 15 1021.8 1021.8 0.0
28/12:30pm 16.1 12.8 4.8 47 5.3 WSW 11 13 6 7 1021.9 1021.9 0.0
28/12:00pm 16.5 14.5 6.9 53 4.7 W 7 11 4 6 1021.9 1021.9 0.0
28/11:30am 15.6 12.7 6.6 55 4.4 W 11 17 6 9 1022.2 1022.2 0.0
28/11:00am 15.2 12.1 5.4 52 4.6 SW 11 15 6 8 1022.5 1022.5 0.0
28/10:30am 14.0 11.3 5.4 56 4.1 W 9 15 5 8 1022.9 1022.9 0.0
28/10:00am 12.9 10.5 5.1 59 3.6 WNW 7 15 4 8 1023.2 1023.2 0.0
28/09:30am 12.0 8.7 4.5 60 3.4 W 11 15 6 8 1023.4 1023.4 0.0
28/09:00am 11.9 9.4 4.6 61 3.3 W 7 11 4 6 1023.3 1023.3 0.0
28/08:30am 11.5 7.8 4.5 62 3.2 W 13 17 7 9 1023.3 1023.3 0.0
28/08:00am 10.8 6.4 4.5 65 2.8 W 17 20 9 11 1023.2 1023.2 0.0
28/07:30am 10.3 4.4 4.0 65 2.8 WNW 24 33 13 18 1023.2 1023.2 0.0
28/07:00am 10.2 5.7 4.4 67 2.6 NW 17 20 9 11 1022.9 1022.9 0.0
28/06:30am 9.8 5.8 4.8 71 2.2 WNW 15 20 8 11 1023.1 1023.1 0.0
28/06:00am 9.7 4.9 4.9 72 2.1 W 19 26 10 14 1023.0 1023.0 0.0
28/05:30am 9.9 6.1 3.9 66 2.6 W 13 20 7 11 1022.7 1022.7 0.0
28/05:00am 10.1 5.1 4.5 68 2.5 W 20 30 11 16 1022.7 1022.7 0.0
28/04:30am 9.9 4.9 4.5 69 2.4 W 20 28 11 15 1022.6 1022.6 0.0
28/04:00am 10.1 5.1 3.6 64 2.8 WSW 19 26 10 14 1022.8 1022.8 0.0
28/03:30am 10.5 5.0 4.2 65 2.8 W 22 30 12 16 1022.6 1022.6 0.0
28/03:00am 10.4 4.8 3.4 62 3.0 W 22 33 12 18 1022.6 1022.6 0.0
28/02:30am 10.1 4.9 3.8 65 2.8 WNW 20 26 11 14 1022.8 1022.8 0.0
28/02:00am 9.9 4.5 4.3 68 2.5 WNW 22 28 12 15 1023.0 1023.0 0.0
28/01:30am 10.1 3.1 4.3 67 2.6 W 30 37 16 20 1023.1 1023.1 0.0
28/01:00am 10.5 3.1 4.0 64 2.9 W 32 43 17 23 1023.2 1023.2 0.0
28/12:30am 10.5 5.0 5.7 72 2.2 WSW 24 30 13 16 1023.6 1023.6 0.0
28/12:00am 10.5 5.4 5.9 73 2.1 WSW 22 30 12 16 1023.7 1023.7 0.0
 
Date/Time
EDT
Tmp

°C
App
Tmp
°C
Dew
Point
°C
Rel
Hum
%
Delta-T

°C
Wind Press
QNH
hPa
Press
MSL
hPa
Rain
since
9 am
mm
Dir
 
Spd
km/h
Gust
km/h
Spd
kts
Gust
kts
27/11:30pm 10.5 5.0 5.9 73 2.1 WSW 24 30 13 16 1023.8 1023.8 0.0
27/11:00pm 10.6 3.9 5.8 72 2.2 WSW 30 39 16 21 1024.0 1024.0 0.0
27/10:30pm 10.8 5.1 5.1 68 2.6 WSW 24 32 13 17 1024.2 1024.2 0.0
27/10:00pm 10.8 4.3 4.5 65 2.8 WSW 28 35 15 19 1024.3 1024.3 0.0
27/09:30pm 10.8 3.9 4.5 65 2.8 WSW 30 37 16 20 1024.3 1024.3 0.0
27/09:00pm 10.8 4.3 4.9 67 2.7 WSW 28 37 15 20 1024.0 1024.0 0.0
27/08:30pm 10.8 4.5 5.8 71 2.3 WSW 28 35 15 19 1024.1 1024.1 0.0
27/08:00pm 10.6 4.9 6.6 76 1.9 WSW 26 39 14 21 1024.0 1024.0 0.0
27/07:30pm 11.2 4.2 6.7 74 2.1 SW 33 43 18 23 1023.8 1023.8 0.0
27/07:00pm 11.5 4.3 6.0 69 2.6 WSW 33 46 18 25 1023.9 1023.9 0.0
27/06:30pm 12.3 5.1 6.1 66 2.9 WSW 33 44 18 24 1023.9 1023.9 0.0
27/06:00pm 12.5 5.0 6.1 65 3.0 WSW 35 48 19 26 1023.9 1023.9 0.0
27/05:30pm 12.3 4.0 5.9 65 3.0 WSW 39 48 21 26 1023.9 1023.9 0.0
27/05:00pm 12.5 4.2 5.9 64 3.1 WSW 39 52 21 28 1023.9 1023.9 0.0
27/04:30pm 12.6 4.2 5.5 62 3.3 WSW 39 48 21 26 1024.0 1024.0 0.0
27/04:00pm 12.5 3.5 6.5 67 2.8 WSW 43 54 23 29 1023.9 1023.9 0.0
27/03:30pm 12.9 4.6 6.3 64 3.1 WSW 39 50 21 27 1024.0 1024.0 0.0
27/03:00pm 12.0 2.9 6.1 67 2.8 WSW 43 54 23 29 1024.1 1024.1 0.0
27/02:30pm 12.3 3.0 5.9 65 3.0 WSW 44 59 24 32 1024.2 1024.2 0.0
27/02:00pm 12.9 4.2 5.8 62 3.3 WSW 41 50 22 27 1024.0 1024.0 0.0
27/01:30pm 13.2 3.9 5.1 58 3.8 WSW 43 54 23 29 1023.7 1023.7 0.0
27/01:00pm 13.8 5.1 6.2 60 3.6 WSW 41 52 22 28 1023.8 1023.8 0.0
27/12:30pm 12.9 4.6 6.0 63 3.3 WSW 39 50 21 27 1023.9 1023.9 0.0
27/12:00pm 13.0 4.4 4.9 58 3.7 WSW 39 50 21 27 1023.8 1023.8 0.0
27/11:30am 12.3 4.7 5.7 64 3.1 WSW 35 44 19 24 1023.8 1023.8 0.0
27/11:00am 11.4 3.9 6.1 70 2.5 W 35 50 19 27 1023.7 1023.7 0.0
27/10:30am 11.6 3.3 6.1 69 2.6 W 39 46 21 25 1023.8 1023.8 0.0
27/10:04am 11.2 2.1 6.1 71 2.4 W 43 65 23 35 1023.6 1023.6 0.0
27/10:00am 11.3 2.6 6.0 70 2.5 W 41 54 22 29 1023.7 1023.7 0.0
27/09:48am 11.3 4.1 5.2 66 2.8 W 32 54 17 29 1023.7 1023.7 0.0
27/09:30am 11.4 3.6 5.1 65 2.9 W 35 50 19 27 1023.6 1023.6 0.0
27/09:00am 11.2 2.6 4.9 65 2.9 W 39 57 21 31 1023.5 1023.5 2.6
27/08:58am 11.1 2.5 4.6 64 2.9 W 39 57 21 31 1023.4 1023.4 2.6
27/08:30am 11.3 2.8 5.0 65 2.9 W 39 50 21 27 1023.2 1023.2 2.6
27/08:00am 10.8 1.3 4.0 63 3.0 WSW 43 54 23 29 1022.9 1022.9 2.6
27/07:30am 11.0 1.7 4.9 66 2.8 WSW 43 56 23 30 1022.6 1022.6 2.6
27/07:00am 10.9 1.8 5.9 71 2.3 WSW 43 57 23 31 1022.2 1022.2 2.6
27/06:30am 10.6 1.8 5.4 70 2.4 W 41 57 22 31 1021.8 1021.8 2.6
27/06:00am 10.6 1.6 4.7 67 2.7 WSW 41 54 22 29 1021.4 1021.4 2.6
27/05:30am 10.7 1.1 4.6 66 2.8 WSW 44 57 24 31 1021.2 1021.2 2.6
27/05:00am 10.6 1.6 4.5 66 2.7 W 41 50 22 27 1020.9 1020.9 2.6
27/04:30am 10.3 0.4 4.9 69 2.4 WSW 46 63 25 34 1020.4 1020.4 2.6
27/04:00am 10.6 2.0 4.9 68 2.6 WSW 39 59 21 32 1020.3 1020.3 2.6
27/03:56am 10.7 2.9 4.8 67 2.7 W 35 54 19 29 1020.3 1020.3 2.6
27/03:30am 10.4 2.4 5.6 72 2.2 W 37 48 20 26 1020.2 1020.2 2.6
27/03:00am 10.3 0.0 4.5 67 2.6 W 48 61 26 33 1020.3 1020.3 2.6
27/02:43am 10.0 0.5 4.8 70 2.3 WSW 44 63 24 34 1020.3 1020.3 2.6
27/02:30am 10.5 2.3 4.9 68 2.5 W 37 52 20 28 1020.3 1020.3 2.6
27/02:00am 10.5 2.4 5.1 69 2.4 W 37 50 20 27 1020.3 1020.3 2.6
27/01:47am 10.6 2.4 4.9 68 2.6 W 37 56 20 30 1020.3 1020.3 2.6
27/01:30am 10.4 1.9 5.0 69 2.5 WSW 39 50 21 27 1020.5 1020.5 2.6
27/01:00am 10.5 0.5 4.2 65 2.8 W 46 61 25 33 1020.4 1020.4 2.6
27/12:48am 10.4 -0.4 4.3 66 2.7 WSW 50 70 27 38 1020.6 1020.6 2.6
27/12:30am 10.3 -0.7 5.1 70 2.4 WSW 52 69 28 37 1020.6 1020.6 2.6
27/12:00am 10.4 0.7 5.6 72 2.2 W 46 65 25 35 1020.4 1020.4 2.6
 
Date/Time
EDT
Tmp

°C
App
Tmp
°C
Dew
Point
°C
Rel
Hum
%
Delta-T

°C
Wind Press
QNH
hPa
Press
MSL
hPa
Rain
since
9 am
mm
Dir
 
Spd
km/h
Gust
km/h
Spd
kts
Gust
kts
26/11:32pm 10.7 1.6 4.2 64 2.9 W 41 59 22 32 1020.2 1020.2 2.6
26/11:30pm 10.8 1.8 4.3 64 2.9 W 41 50 22 27 1020.3 1020.3 2.6
26/11:00pm 10.7 0.0 4.4 65 2.8 WSW 50 69 27 37 1020.2 1020.2 2.6
26/10:30pm 10.9 1.3 6.1 72 2.2 WSW 46 67 25 36 1020.0 1020.0 2.6
26/10:28pm 11.0 1.9 6.6 74 2.1 WSW 44 63 24 34 1020.1 1020.1 2.6
26/10:00pm 10.9 1.9 6.6 75 2.0 W 43 57 23 31 1020.0 1020.0 2.6
26/09:30pm 10.7 2.6 6.8 77 1.8 W 39 48 21 26 1019.7 1019.7 2.6
26/09:00pm 10.8 2.1 6.2 73 2.1 W 41 54 22 29 1019.4 1019.4 2.6
26/08:31pm 10.7 1.4 6.1 73 2.1 W 44 63 24 34 1018.8 1018.9 2.6
26/08:30pm 10.8 1.6 6.4 74 2.1 W 44 57 24 31 1018.8 1018.9 2.6
26/08:00pm 10.8 2.1 6.0 72 2.2 W 41 56 22 30 1018.8 1018.9 2.6
26/07:30pm 11.0 2.0 6.4 73 2.2 W 43 57 23 31 1018.4 1018.4 2.6
26/07:00pm 10.3 0.6 7.7 84 1.2 WSW 48 63 26 34 1018.0 1018.0 2.6
26/06:53pm 10.6 1.8 7.3 80 1.6 W 43 63 23 34 1017.8 1017.8 2.6
26/06:30pm 10.5 1.7 7.4 81 1.5 W 43 56 23 30 1017.4 1017.4 2.6
26/06:18pm 10.3 1.6 7.5 83 1.3 WSW 43 61 23 33 1017.4 1017.4 2.6
26/06:00pm 12.5 1.4 6.5 67 2.9 W 54 65 29 35 1017.3 1017.3 2.4
26/05:50pm 12.6 3.1 6.9 68 2.7 W 46 65 25 35 1017.4 1017.4 2.2
26/05:30pm 11.8 2.5 7.7 76 2.0 W 46 59 25 32 1017.3 1017.3 2.2
26/05:00pm 11.8 2.2 7.9 77 1.9 W 48 69 26 37 1017.0 1017.0 2.2
26/04:54pm 11.3 1.3 8.0 80 1.6 W 50 69 27 37 1017.0 1017.0 2.2
26/04:30pm 12.7 2.0 6.5 66 3.0 W 52 63 28 34 1016.8 1016.8 2.2
26/04:00pm 12.7 3.4 7.6 71 2.5 W 46 69 25 37 1016.5 1016.5 2.2
26/03:30pm 11.3 0.2 8.2 81 1.5 W 56 80 30 43 1016.4 1016.4 2.2
26/03:22pm 12.7 2.0 6.5 66 3.0 W 52 72 28 39 1016.2 1016.2 2.2
26/03:00pm 13.2 2.9 6.5 64 3.2 W 50 61 27 33 1016.2 1016.2 2.2
26/02:51pm 13.1 4.1 6.5 64 3.2 WSW 43 61 23 33 1016.1 1016.1 2.2
26/02:30pm 13.2 4.4 7.2 67 2.9 WSW 43 54 23 29 1015.9 1015.9 2.2
26/02:00pm 12.2 3.3 7.5 73 2.3 WSW 44 65 24 35 1015.9 1015.9 2.2
26/01:30pm 12.5 3.0 6.8 68 2.7 WSW 46 65 25 35 1015.4 1015.4 2.2
26/01:06pm 12.7 3.8 7.0 68 2.8 WSW 43 61 23 33 1015.3 1015.3 2.2
26/01:00pm 12.9 4.7 8.4 74 2.2 WSW 41 54 22 29 1015.3 1015.3 2.2
26/12:42pm 11.5 3.7 8.2 80 1.6 WSW 39 50 21 27 1015.3 1015.3 2.2
26/12:30pm 11.0 1.2 8.8 86 1.1 W 50 65 27 35 1014.8 1014.8 2.2
26/12:22pm 10.5 1.5 7.4 81 1.5 W 44 63 24 34 1014.7 1014.7 2.2
26/12:00pm 10.5 1.2 7.7 83 1.4 W 46 61 25 33 1014.7 1014.7 2.2
26/11:30am 10.8 2.2 8.2 84 1.3 W 43 57 23 31 1014.5 1014.5 1.0
26/11:05am 10.0 1.3 7.6 85 1.2 WSW 43 69 23 37 1014.0 1014.0 0.8
26/11:00am 10.3 2.0 7.9 85 1.2 WSW 41 54 22 29 1014.1 1014.1 0.6
26/10:30am 12.8 3.2 7.9 72 2.4 W 48 63 26 34 1013.5 1013.5 0.6
26/10:00am 10.8 1.9 7.5 80 1.6 W 44 67 24 36 1013.2 1013.2 0.6
26/09:30am 10.0 0.5 8.3 89 0.8 W 48 67 26 36 1013.0 1013.0 0.4
26/09:03am 8.6 -3.0 6.6 87 0.9 WSW 57 76 31 41 1012.4 1012.4 0.2
26/09:00am 8.4 -3.3 6.2 86 1.0 WSW 57 70 31 38 1012.4 1012.4 3.0
26/08:37am 10.1 1.1 6.3 77 1.8 W 43 61 23 33 1012.2 1012.2 2.2
26/08:30am 11.2 2.2 6.3 72 2.3 W 43 57 23 31 1011.8 1011.8 2.2
26/08:00am 11.6 2.2 4.6 62 3.2 W 43 61 23 33 1011.0 1011.0 2.2
26/07:52am 11.5 2.3 5.4 66 2.8 W 43 61 23 33 1010.9 1010.9 2.2
26/07:30am 11.3 1.3 4.3 62 3.2 W 46 59 25 32 1010.6 1010.6 2.2
26/07:25am 11.2 2.0 3.7 60 3.3 W 41 59 22 32 1010.5 1010.5 2.2
26/07:19am 11.3 3.3 3.6 59 3.4 W 35 44 19 24 1010.4 1010.4 2.2
26/07:05am 11.2 -0.7 4.2 62 3.1 W 56 74 30 40 1010.0 1010.0 2.2
26/07:00am 11.0 -1.5 4.0 62 3.1 W 59 74 32 40 1010.0 1010.0 2.2
26/06:57am 10.8 -2.9 3.6 61 3.2 W 65 74 35 40 1009.9 1009.9 2.2
26/06:30am 10.6 1.4 5.4 70 2.4 W 43 61 23 33 1009.8 1009.8 2.2
26/06:26am 10.4 1.5 5.0 69 2.5 W 41 59 22 32 1009.9 1009.9 2.2

Latest Capital City Observations: Canberra | Sydney | Melbourne | Brisbane | Adelaide | Perth | Hobart | Darwin

Other Formats:

Comma delimited format used in spreadsheet applications
http://www.bom.gov.au/fwo/IDT60901/IDT60901.95967.axf

JavaScript Object Notation format (JSON) in row-major order
http://www.bom.gov.au/fwo/IDT60901/IDT60901.95967.json